sensor_id;sensor_type;location;lat;lon;timestamp;P1;durP1;ratioP1;P2;durP2;ratioP2
42186;SDS011;27858;51.414;0.018;2022-08-19T00:01:23;2.25;;;1.35;;
42186;SDS011;27858;51.414;0.018;2022-08-19T00:03:58;1.27;;;0.85;;
42186;SDS011;27858;51.414;0.018;2022-08-19T00:06:27;1.52;;;0.95;;
42186;SDS011;27858;51.414;0.018;2022-08-19T00:08:55;1.45;;;1.15;;
42186;SDS011;27858;51.414;0.018;2022-08-19T00:11:23;2.55;;;1.10;;
42186;SDS011;27858;51.414;0.018;2022-08-19T00:13:51;1.60;;;1.27;;
42186;SDS011;27858;51.414;0.018;2022-08-19T00:16:21;3.13;;;1.13;;
42186;SDS011;27858;51.414;0.018;2022-08-19T00:18:51;1.70;;;1.23;;
42186;SDS011;27858;51.414;0.018;2022-08-19T00:21:20;3.90;;;1.33;;
42186;SDS011;27858;51.414;0.018;2022-08-19T00:23:47;1.55;;;0.90;;
42186;SDS011;27858;51.414;0.018;2022-08-19T00:26:14;1.77;;;0.88;;
42186;SDS011;27858;51.414;0.018;2022-08-19T00:28:40;1.10;;;0.70;;
42186;SDS011;27858;51.414;0.018;2022-08-19T00:31:08;1.67;;;1.13;;
42186;SDS011;27858;51.414;0.018;2022-08-19T00:33:35;1.05;;;0.80;;
42186;SDS011;27858;51.414;0.018;2022-08-19T00:36:06;0.98;;;0.98;;
42186;SDS011;27858;51.414;0.018;2022-08-19T00:38:34;0.82;;;0.82;;
42186;SDS011;27858;51.414;0.018;2022-08-19T00:41:04;2.40;;;1.48;;
42186;SDS011;27858;51.414;0.018;2022-08-19T00:43:32;5.55;;;1.27;;
42186;SDS011;27858;51.414;0.018;2022-08-19T00:45:59;1.45;;;0.75;;
42186;SDS011;27858;51.414;0.018;2022-08-19T00:48:27;1.35;;;1.05;;
42186;SDS011;27858;51.414;0.018;2022-08-19T00:50:54;3.15;;;1.38;;
42186;SDS011;27858;51.414;0.018;2022-08-19T00:53:23;1.48;;;0.88;;
42186;SDS011;27858;51.414;0.018;2022-08-19T00:55:53;1.90;;;1.05;;
42186;SDS011;27858;51.414;0.018;2022-08-19T00:58:24;2.95;;;1.08;;
42186;SDS011;27858;51.414;0.018;2022-08-19T01:00:54;4.22;;;1.27;;
42186;SDS011;27858;51.414;0.018;2022-08-19T01:03:21;1.38;;;1.25;;
42186;SDS011;27858;51.414;0.018;2022-08-19T01:05:49;1.38;;;1.17;;
42186;SDS011;27858;51.414;0.018;2022-08-19T01:08:21;2.55;;;1.00;;
42186;SDS011;27858;51.414;0.018;2022-08-19T01:10:54;1.88;;;0.80;;
42186;SDS011;27858;51.414;0.018;2022-08-19T01:13:23;1.45;;;0.98;;
42186;SDS011;27858;51.414;0.018;2022-08-19T01:16:09;2.58;;;1.42;;
42186;SDS011;27858;51.414;0.018;2022-08-19T01:18:39;1.25;;;1.00;;
42186;SDS011;27858;51.414;0.018;2022-08-19T01:21:31;2.78;;;1.60;;
42186;SDS011;27858;51.414;0.018;2022-08-19T01:24:05;4.40;;;1.50;;
42186;SDS011;27858;51.414;0.018;2022-08-19T01:26:34;2.17;;;1.05;;
42186;SDS011;27858;51.414;0.018;2022-08-19T01:29:07;1.38;;;1.27;;
42186;SDS011;27858;51.414;0.018;2022-08-19T01:31:35;5.60;;;1.58;;
42186;SDS011;27858;51.414;0.018;2022-08-19T01:34:02;1.92;;;0.93;;
42186;SDS011;27858;51.414;0.018;2022-08-19T01:36:31;1.33;;;0.90;;
42186;SDS011;27858;51.414;0.018;2022-08-19T01:38:59;2.10;;;0.95;;
42186;SDS011;27858;51.414;0.018;2022-08-19T01:41:26;3.30;;;1.02;;
42186;SDS011;27858;51.414;0.018;2022-08-19T01:43:53;1.08;;;0.82;;
42186;SDS011;27858;51.414;0.018;2022-08-19T01:46:41;2.85;;;1.58;;
42186;SDS011;27858;51.414;0.018;2022-08-19T01:49:10;2.15;;;1.42;;
42186;SDS011;27858;51.414;0.018;2022-08-19T01:51:37;1.95;;;1.48;;
42186;SDS011;27858;51.414;0.018;2022-08-19T01:54:06;3.90;;;1.67;;
42186;SDS011;27858;51.414;0.018;2022-08-19T01:56:34;3.92;;;1.65;;
42186;SDS011;27858;51.414;0.018;2022-08-19T01:59:02;2.15;;;1.73;;
42186;SDS011;27858;51.414;0.018;2022-08-19T02:01:33;2.15;;;1.75;;
42186;SDS011;27858;51.414;0.018;2022-08-19T02:04:01;4.97;;;2.08;;
42186;SDS011;27858;51.414;0.018;2022-08-19T02:06:28;2.78;;;1.55;;
42186;SDS011;27858;51.414;0.018;2022-08-19T02:08:56;3.67;;;1.50;;
42186;SDS011;27858;51.414;0.018;2022-08-19T02:11:27;2.47;;;1.58;;
42186;SDS011;27858;51.414;0.018;2022-08-19T02:13:58;3.42;;;1.58;;
42186;SDS011;27858;51.414;0.018;2022-08-19T02:16:29;3.50;;;1.70;;
42186;SDS011;27858;51.414;0.018;2022-08-19T02:18:56;1.80;;;1.70;;
42186;SDS011;27858;51.414;0.018;2022-08-19T02:21:26;2.33;;;1.95;;
42186;SDS011;27858;51.414;0.018;2022-08-19T02:23:54;2.90;;;1.77;;
42186;SDS011;27858;51.414;0.018;2022-08-19T02:26:21;1.98;;;1.50;;
42186;SDS011;27858;51.414;0.018;2022-08-19T02:28:48;3.65;;;1.67;;
42186;SDS011;27858;51.414;0.018;2022-08-19T02:31:17;5.20;;;1.65;;
42186;SDS011;27858;51.414;0.018;2022-08-19T02:33:45;2.35;;;1.73;;
42186;SDS011;27858;51.414;0.018;2022-08-19T02:36:13;1.95;;;1.58;;
42186;SDS011;27858;51.414;0.018;2022-08-19T02:38:45;3.88;;;1.88;;
42186;SDS011;27858;51.414;0.018;2022-08-19T02:41:24;2.08;;;1.67;;
42186;SDS011;27858;51.414;0.018;2022-08-19T02:43:54;3.00;;;1.73;;
42186;SDS011;27858;51.414;0.018;2022-08-19T02:46:45;4.38;;;1.67;;
42186;SDS011;27858;51.414;0.018;2022-08-19T02:49:13;3.95;;;1.67;;
42186;SDS011;27858;51.414;0.018;2022-08-19T02:51:43;3.25;;;1.50;;
42186;SDS011;27858;51.414;0.018;2022-08-19T02:54:12;5.15;;;1.65;;
42186;SDS011;27858;51.414;0.018;2022-08-19T02:56:40;2.85;;;1.70;;
42186;SDS011;27858;51.414;0.018;2022-08-19T02:59:07;2.08;;;1.50;;
42186;SDS011;27858;51.414;0.018;2022-08-19T03:01:36;2.90;;;1.55;;
42186;SDS011;27858;51.414;0.018;2022-08-19T03:04:07;4.18;;;1.88;;
42186;SDS011;27858;51.414;0.018;2022-08-19T03:06:36;2.25;;;1.65;;
42186;SDS011;27858;51.414;0.018;2022-08-19T03:09:04;2.15;;;1.52;;
42186;SDS011;27858;51.414;0.018;2022-08-19T03:11:31;2.25;;;1.67;;
42186;SDS011;27858;51.414;0.018;2022-08-19T03:13:59;4.28;;;1.52;;
42186;SDS011;27858;51.414;0.018;2022-08-19T03:16:28;5.00;;;1.45;;
42186;SDS011;27858;51.414;0.018;2022-08-19T03:18:59;2.42;;;1.63;;
42186;SDS011;27858;51.414;0.018;2022-08-19T03:21:29;2.50;;;1.83;;
42186;SDS011;27858;51.414;0.018;2022-08-19T03:23:58;5.38;;;1.85;;
42186;SDS011;27858;51.414;0.018;2022-08-19T03:26:31;4.10;;;1.48;;
42186;SDS011;27858;51.414;0.018;2022-08-19T03:29:01;4.47;;;1.42;;
42186;SDS011;27858;51.414;0.018;2022-08-19T03:31:30;1.33;;;1.05;;
42186;SDS011;27858;51.414;0.018;2022-08-19T03:34:18;2.72;;;1.88;;
42186;SDS011;27858;51.414;0.018;2022-08-19T03:36:46;7.30;;;1.40;;
42186;SDS011;27858;51.414;0.018;2022-08-19T03:39:14;1.90;;;1.50;;
42186;SDS011;27858;51.414;0.018;2022-08-19T03:41:42;2.33;;;1.77;;
42186;SDS011;27858;51.414;0.018;2022-08-19T03:44:14;3.40;;;1.75;;
42186;SDS011;27858;51.414;0.018;2022-08-19T03:46:48;2.95;;;1.58;;
42186;SDS011;27858;51.414;0.018;2022-08-19T03:49:20;4.00;;;1.63;;
42186;SDS011;27858;51.414;0.018;2022-08-19T03:51:54;4.93;;;1.58;;
42186;SDS011;27858;51.414;0.018;2022-08-19T03:54:23;4.80;;;1.48;;
42186;SDS011;27858;51.414;0.018;2022-08-19T03:56:52;1.20;;;1.10;;
42186;SDS011;27858;51.414;0.018;2022-08-19T03:59:24;2.03;;;1.17;;
42186;SDS011;27858;51.414;0.018;2022-08-19T04:01:55;6.15;;;1.85;;
42186;SDS011;27858;51.414;0.018;2022-08-19T04:04:23;2.05;;;1.52;;
42186;SDS011;27858;51.414;0.018;2022-08-19T04:06:54;1.63;;;1.30;;
42186;SDS011;27858;51.414;0.018;2022-08-19T04:09:22;3.50;;;1.70;;
42186;SDS011;27858;51.414;0.018;2022-08-19T04:11:50;2.60;;;1.55;;
42186;SDS011;27858;51.414;0.018;2022-08-19T04:14:22;3.23;;;1.77;;
42186;SDS011;27858;51.414;0.018;2022-08-19T04:16:54;2.03;;;1.60;;
42186;SDS011;27858;51.414;0.018;2022-08-19T04:19:22;1.48;;;1.33;;
42186;SDS011;27858;51.414;0.018;2022-08-19T04:21:51;2.63;;;1.70;;
42186;SDS011;27858;51.414;0.018;2022-08-19T04:24:20;2.30;;;1.70;;
42186;SDS011;27858;51.414;0.018;2022-08-19T04:26:48;4.75;;;1.80;;
42186;SDS011;27858;51.414;0.018;2022-08-19T04:29:17;3.50;;;1.92;;
42186;SDS011;27858;51.414;0.018;2022-08-19T04:31:47;3.92;;;1.75;;
42186;SDS011;27858;51.414;0.018;2022-08-19T04:34:15;2.33;;;1.60;;
42186;SDS011;27858;51.414;0.018;2022-08-19T04:36:45;2.97;;;1.70;;
42186;SDS011;27858;51.414;0.018;2022-08-19T04:39:13;1.85;;;1.58;;
42186;SDS011;27858;51.414;0.018;2022-08-19T04:41:42;2.92;;;1.40;;
42186;SDS011;27858;51.414;0.018;2022-08-19T04:44:32;2.20;;;1.52;;
42186;SDS011;27858;51.414;0.018;2022-08-19T04:47:00;1.98;;;1.50;;
42186;SDS011;27858;51.414;0.018;2022-08-19T04:49:36;3.50;;;2.13;;
42186;SDS011;27858;51.414;0.018;2022-08-19T04:52:03;4.90;;;1.80;;
42186;SDS011;27858;51.414;0.018;2022-08-19T04:54:30;2.72;;;1.58;;
42186;SDS011;27858;51.414;0.018;2022-08-19T04:57:04;4.95;;;2.13;;
42186;SDS011;27858;51.414;0.018;2022-08-19T04:59:37;2.67;;;1.70;;
42186;SDS011;27858;51.414;0.018;2022-08-19T05:02:04;2.58;;;1.42;;
42186;SDS011;27858;51.414;0.018;2022-08-19T05:04:32;2.40;;;1.95;;
42186;SDS011;27858;51.414;0.018;2022-08-19T05:06:59;3.05;;;1.77;;
42186;SDS011;27858;51.414;0.018;2022-08-19T05:09:28;2.13;;;1.92;;
42186;SDS011;27858;51.414;0.018;2022-08-19T05:12:16;2.75;;;1.83;;
42186;SDS011;27858;51.414;0.018;2022-08-19T05:14:43;2.58;;;1.95;;
42186;SDS011;27858;51.414;0.018;2022-08-19T05:17:11;2.75;;;1.63;;
42186;SDS011;27858;51.414;0.018;2022-08-19T05:19:58;2.92;;;1.63;;
42186;SDS011;27858;51.414;0.018;2022-08-19T05:22:44;4.57;;;1.73;;
42186;SDS011;27858;51.414;0.018;2022-08-19T05:25:14;1.77;;;1.30;;
42186;SDS011;27858;51.414;0.018;2022-08-19T05:27:45;6.57;;;2.22;;
42186;SDS011;27858;51.414;0.018;2022-08-19T05:30:12;3.45;;;1.33;;
42186;SDS011;27858;51.414;0.018;2022-08-19T05:32:39;1.52;;;1.42;;
42186;SDS011;27858;51.414;0.018;2022-08-19T05:35:06;4.70;;;1.20;;
42186;SDS011;27858;51.414;0.018;2022-08-19T05:37:34;2.05;;;1.10;;
42186;SDS011;27858;51.414;0.018;2022-08-19T05:40:01;1.52;;;1.10;;
42186;SDS011;27858;51.414;0.018;2022-08-19T05:42:29;2.58;;;0.90;;
42186;SDS011;27858;51.414;0.018;2022-08-19T05:44:56;1.52;;;0.57;;
42186;SDS011;27858;51.414;0.018;2022-08-19T05:47:23;3.05;;;1.30;;
42186;SDS011;27858;51.414;0.018;2022-08-19T05:49:50;1.95;;;0.70;;
42186;SDS011;27858;51.414;0.018;2022-08-19T05:52:17;1.15;;;0.80;;
42186;SDS011;27858;51.414;0.018;2022-08-19T05:54:52;0.65;;;0.65;;
42186;SDS011;27858;51.414;0.018;2022-08-19T05:57:21;1.50;;;0.68;;
42186;SDS011;27858;51.414;0.018;2022-08-19T05:59:48;2.05;;;1.25;;
42186;SDS011;27858;51.414;0.018;2022-08-19T06:02:24;1.20;;;0.57;;
42186;SDS011;27858;51.414;0.018;2022-08-19T06:04:54;0.65;;;0.60;;
42186;SDS011;27858;51.414;0.018;2022-08-19T06:07:21;2.03;;;0.60;;
42186;SDS011;27858;51.414;0.018;2022-08-19T06:09:48;0.77;;;0.75;;
42186;SDS011;27858;51.414;0.018;2022-08-19T06:12:26;1.90;;;0.63;;
42186;SDS011;27858;51.414;0.018;2022-08-19T06:14:57;0.45;;;0.40;;
42186;SDS011;27858;51.414;0.018;2022-08-19T06:17:27;2.97;;;1.02;;
42186;SDS011;27858;51.414;0.018;2022-08-19T06:19:56;0.80;;;0.47;;
42186;SDS011;27858;51.414;0.018;2022-08-19T06:22:24;1.92;;;0.60;;
42186;SDS011;27858;51.414;0.018;2022-08-19T06:24:51;0.80;;;0.52;;
42186;SDS011;27858;51.414;0.018;2022-08-19T06:27:20;1.65;;;0.55;;
42186;SDS011;27858;51.414;0.018;2022-08-19T06:29:47;2.97;;;0.65;;
42186;SDS011;27858;51.414;0.018;2022-08-19T06:32:15;0.73;;;0.52;;
42186;SDS011;27858;51.414;0.018;2022-08-19T06:34:43;9.38;;;0.70;;
42186;SDS011;27858;51.414;0.018;2022-08-19T06:37:11;0.75;;;0.30;;
42186;SDS011;27858;51.414;0.018;2022-08-19T06:39:39;1.15;;;0.50;;
42186;SDS011;27858;51.414;0.018;2022-08-19T06:42:07;3.80;;;1.23;;
42186;SDS011;27858;51.414;0.018;2022-08-19T06:44:38;0.28;;;0.20;;
42186;SDS011;27858;51.414;0.018;2022-08-19T06:47:09;0.20;;;0.20;;
42186;SDS011;27858;51.414;0.018;2022-08-19T06:49:40;0.50;;;0.50;;
42186;SDS011;27858;51.414;0.018;2022-08-19T06:52:08;0.65;;;0.30;;
42186;SDS011;27858;51.414;0.018;2022-08-19T06:54:39;2.13;;;0.93;;
42186;SDS011;27858;51.414;0.018;2022-08-19T06:57:21;1.55;;;0.52;;
42186;SDS011;27858;51.414;0.018;2022-08-19T06:59:51;0.30;;;0.30;;
42186;SDS011;27858;51.414;0.018;2022-08-19T07:02:18;0.80;;;0.22;;
42186;SDS011;27858;51.414;0.018;2022-08-19T07:04:47;1.38;;;0.45;;
42186;SDS011;27858;51.414;0.018;2022-08-19T07:07:18;0.82;;;0.50;;
42186;SDS011;27858;51.414;0.018;2022-08-19T07:09:47;1.33;;;0.52;;
42186;SDS011;27858;51.414;0.018;2022-08-19T07:12:24;1.27;;;0.60;;
42186;SDS011;27858;51.414;0.018;2022-08-19T07:14:51;1.55;;;0.40;;
42186;SDS011;27858;51.414;0.018;2022-08-19T07:17:19;4.82;;;0.60;;
42186;SDS011;27858;51.414;0.018;2022-08-19T07:19:46;1.00;;;0.40;;
42186;SDS011;27858;51.414;0.018;2022-08-19T07:22:14;3.55;;;0.82;;
42186;SDS011;27858;51.414;0.018;2022-08-19T07:24:42;1.25;;;0.32;;
42186;SDS011;27858;51.414;0.018;2022-08-19T07:27:16;0.52;;;0.50;;
42186;SDS011;27858;51.414;0.018;2022-08-19T07:29:50;0.60;;;0.40;;
42186;SDS011;27858;51.414;0.018;2022-08-19T07:32:22;0.68;;;0.60;;
42186;SDS011;27858;51.414;0.018;2022-08-19T07:34:53;3.33;;;0.60;;
42186;SDS011;27858;51.414;0.018;2022-08-19T07:37:21;2.47;;;0.57;;
42186;SDS011;27858;51.414;0.018;2022-08-19T07:39:54;2.30;;;0.90;;
42186;SDS011;27858;51.414;0.018;2022-08-19T07:42:21;0.50;;;0.40;;
42186;SDS011;27858;51.414;0.018;2022-08-19T07:44:48;0.32;;;0.30;;
42186;SDS011;27858;51.414;0.018;2022-08-19T07:47:16;1.00;;;0.30;;
42186;SDS011;27858;51.414;0.018;2022-08-19T07:50:05;0.63;;;0.40;;
42186;SDS011;27858;51.414;0.018;2022-08-19T07:52:34;0.75;;;0.50;;
42186;SDS011;27858;51.414;0.018;2022-08-19T07:55:03;0.52;;;0.40;;
42186;SDS011;27858;51.414;0.018;2022-08-19T07:57:51;1.92;;;0.55;;
42186;SDS011;27858;51.414;0.018;2022-08-19T08:00:19;1.33;;;0.30;;
42186;SDS011;27858;51.414;0.018;2022-08-19T08:02:50;0.90;;;0.32;;
42186;SDS011;27858;51.414;0.018;2022-08-19T08:05:20;3.58;;;0.95;;
42186;SDS011;27858;51.414;0.018;2022-08-19T08:08:09;1.45;;;0.57;;
42186;SDS011;27858;51.414;0.018;2022-08-19T08:10:55;0.43;;;0.43;;
42186;SDS011;27858;51.414;0.018;2022-08-19T08:13:24;0.40;;;0.40;;
42186;SDS011;27858;51.414;0.018;2022-08-19T08:15:52;2.10;;;0.20;;
42186;SDS011;27858;51.414;0.018;2022-08-19T08:18:21;1.50;;;0.80;;
42186;SDS011;27858;51.414;0.018;2022-08-19T08:20:53;0.85;;;0.55;;
42186;SDS011;27858;51.414;0.018;2022-08-19T08:23:23;1.13;;;0.45;;
42186;SDS011;27858;51.414;0.018;2022-08-19T08:25:56;0.68;;;0.60;;
42186;SDS011;27858;51.414;0.018;2022-08-19T08:28:24;1.52;;;0.60;;
42186;SDS011;27858;51.414;0.018;2022-08-19T08:30:56;8.73;;;1.20;;
42186;SDS011;27858;51.414;0.018;2022-08-19T08:33:27;1.75;;;0.68;;
42186;SDS011;27858;51.414;0.018;2022-08-19T08:36:01;0.73;;;0.28;;
42186;SDS011;27858;51.414;0.018;2022-08-19T08:38:31;0.65;;;0.28;;
42186;SDS011;27858;51.414;0.018;2022-08-19T08:41:07;4.22;;;0.52;;
42186;SDS011;27858;51.414;0.018;2022-08-19T08:43:46;0.30;;;0.30;;
42186;SDS011;27858;51.414;0.018;2022-08-19T08:49:06;0.80;;;0.60;;
42186;SDS011;27858;51.414;0.018;2022-08-19T08:51:43;0.85;;;0.40;;
42186;SDS011;27858;51.414;0.018;2022-08-19T08:54:27;4.80;;;0.65;;
42186;SDS011;27858;51.414;0.018;2022-08-19T08:57:00;1.33;;;0.65;;
42186;SDS011;27858;51.414;0.018;2022-08-19T08:59:33;0.57;;;0.40;;
42186;SDS011;27858;51.414;0.018;2022-08-19T09:02:02;2.17;;;0.68;;
42186;SDS011;27858;51.414;0.018;2022-08-19T09:04:29;0.98;;;0.63;;
42186;SDS011;27858;51.414;0.018;2022-08-19T09:10:27;0.68;;;0.40;;
42186;SDS011;27858;51.414;0.018;2022-08-19T09:13:26;0.50;;;0.40;;
42186;SDS011;27858;51.414;0.018;2022-08-19T09:16:19;0.70;;;0.43;;
42186;SDS011;27858;51.414;0.018;2022-08-19T09:19:04;0.75;;;0.25;;
42186;SDS011;27858;51.414;0.018;2022-08-19T09:21:33;3.80;;;0.93;;
42186;SDS011;27858;51.414;0.018;2022-08-19T09:24:05;2.63;;;1.05;;
42186;SDS011;27858;51.414;0.018;2022-08-19T09:26:33;3.63;;;0.77;;
42186;SDS011;27858;51.414;0.018;2022-08-19T09:29:17;3.13;;;0.98;;
42186;SDS011;27858;51.414;0.018;2022-08-19T09:31:47;1.80;;;0.70;;
42186;SDS011;27858;51.414;0.018;2022-08-19T09:34:16;1.38;;;0.40;;
42186;SDS011;27858;51.414;0.018;2022-08-19T09:36:47;1.48;;;0.63;;
42186;SDS011;27858;51.414;0.018;2022-08-19T09:39:20;2.25;;;0.70;;
42186;SDS011;27858;51.414;0.018;2022-08-19T09:41:48;2.28;;;0.50;;
42186;SDS011;27858;51.414;0.018;2022-08-19T09:44:16;0.47;;;0.47;;
42186;SDS011;27858;51.414;0.018;2022-08-19T09:46:44;4.90;;;0.80;;
42186;SDS011;27858;51.414;0.018;2022-08-19T09:49:14;3.30;;;0.65;;
42186;SDS011;27858;51.414;0.018;2022-08-19T09:51:43;0.93;;;0.35;;
42186;SDS011;27858;51.414;0.018;2022-08-19T09:54:16;0.40;;;0.35;;
42186;SDS011;27858;51.414;0.018;2022-08-19T09:56:50;3.05;;;0.43;;
42186;SDS011;27858;51.414;0.018;2022-08-19T09:59:18;1.73;;;0.63;;
42186;SDS011;27858;51.414;0.018;2022-08-19T10:01:45;0.98;;;0.52;;
42186;SDS011;27858;51.414;0.018;2022-08-19T10:04:12;3.53;;;0.75;;
42186;SDS011;27858;51.414;0.018;2022-08-19T10:06:49;5.15;;;0.75;;
42186;SDS011;27858;51.414;0.018;2022-08-19T10:09:20;0.90;;;0.68;;
42186;SDS011;27858;51.414;0.018;2022-08-19T10:12:00;0.75;;;0.38;;
42186;SDS011;27858;51.414;0.018;2022-08-19T10:14:28;1.08;;;0.68;;
42186;SDS011;27858;51.414;0.018;2022-08-19T10:16:56;4.05;;;0.68;;
42186;SDS011;27858;51.414;0.018;2022-08-19T10:19:24;0.88;;;0.60;;
42186;SDS011;27858;51.414;0.018;2022-08-19T10:21:52;1.60;;;0.65;;
42186;SDS011;27858;51.414;0.018;2022-08-19T10:24:25;2.97;;;0.75;;
42186;SDS011;27858;51.414;0.018;2022-08-19T10:26:54;0.77;;;0.50;;
42186;SDS011;27858;51.414;0.018;2022-08-19T10:29:25;3.13;;;0.80;;
42186;SDS011;27858;51.414;0.018;2022-08-19T10:31:59;2.08;;;0.90;;
42186;SDS011;27858;51.414;0.018;2022-08-19T10:34:28;3.65;;;0.82;;
42186;SDS011;27858;51.414;0.018;2022-08-19T10:36:57;1.70;;;0.68;;
42186;SDS011;27858;51.414;0.018;2022-08-19T10:39:30;2.42;;;0.80;;
42186;SDS011;27858;51.414;0.018;2022-08-19T10:42:08;1.70;;;0.98;;
42186;SDS011;27858;51.414;0.018;2022-08-19T10:44:40;1.10;;;0.50;;
42186;SDS011;27858;51.414;0.018;2022-08-19T10:47:07;3.25;;;1.05;;
42186;SDS011;27858;51.414;0.018;2022-08-19T10:49:50;5.28;;;0.90;;
42186;SDS011;27858;51.414;0.018;2022-08-19T10:52:37;1.95;;;0.70;;
42186;SDS011;27858;51.414;0.018;2022-08-19T10:55:16;8.98;;;1.92;;
42186;SDS011;27858;51.414;0.018;2022-08-19T10:58:04;4.82;;;1.10;;
42186;SDS011;27858;51.414;0.018;2022-08-19T11:03:03;1.50;;;0.85;;
42186;SDS011;27858;51.414;0.018;2022-08-19T11:05:30;2.08;;;0.70;;
42186;SDS011;27858;51.414;0.018;2022-08-19T11:08:05;3.65;;;1.10;;
42186;SDS011;27858;51.414;0.018;2022-08-19T11:10:48;1.40;;;1.00;;
42186;SDS011;27858;51.414;0.018;2022-08-19T11:13:17;3.75;;;0.88;;
42186;SDS011;27858;51.414;0.018;2022-08-19T11:15:44;3.03;;;1.00;;
42186;SDS011;27858;51.414;0.018;2022-08-19T11:18:11;4.03;;;1.02;;
42186;SDS011;27858;51.414;0.018;2022-08-19T11:20:39;1.77;;;0.93;;
42186;SDS011;27858;51.414;0.018;2022-08-19T11:23:06;6.22;;;1.33;;
42186;SDS011;27858;51.414;0.018;2022-08-19T11:25:33;1.80;;;0.63;;
42186;SDS011;27858;51.414;0.018;2022-08-19T11:28:01;4.78;;;1.10;;
42186;SDS011;27858;51.414;0.018;2022-08-19T11:30:28;1.60;;;0.98;;
42186;SDS011;27858;51.414;0.018;2022-08-19T11:32:55;2.78;;;1.10;;
42186;SDS011;27858;51.414;0.018;2022-08-19T11:35:23;1.13;;;0.88;;
42186;SDS011;27858;51.414;0.018;2022-08-19T11:37:50;4.95;;;1.45;;
42186;SDS011;27858;51.414;0.018;2022-08-19T11:40:17;3.65;;;1.15;;
42186;SDS011;27858;51.414;0.018;2022-08-19T11:42:55;4.55;;;1.25;;
42186;SDS011;27858;51.414;0.018;2022-08-19T11:45:29;2.53;;;0.85;;
42186;SDS011;27858;51.414;0.018;2022-08-19T11:47:56;3.60;;;1.27;;
42186;SDS011;27858;51.414;0.018;2022-08-19T11:50:23;3.28;;;1.27;;
42186;SDS011;27858;51.414;0.018;2022-08-19T11:52:53;3.70;;;1.50;;
42186;SDS011;27858;51.414;0.018;2022-08-19T11:55:21;9.57;;;1.75;;
42186;SDS011;27858;51.414;0.018;2022-08-19T11:57:48;3.20;;;1.10;;
42186;SDS011;27858;51.414;0.018;2022-08-19T12:00:15;2.58;;;1.50;;
42186;SDS011;27858;51.414;0.018;2022-08-19T12:02:42;4.82;;;1.95;;
42186;SDS011;27858;51.414;0.018;2022-08-19T12:05:09;8.25;;;1.30;;
42186;SDS011;27858;51.414;0.018;2022-08-19T12:07:38;6.30;;;1.60;;
42186;SDS011;27858;51.414;0.018;2022-08-19T12:10:05;4.70;;;1.55;;
42186;SDS011;27858;51.414;0.018;2022-08-19T12:12:33;5.22;;;1.73;;
42186;SDS011;27858;51.414;0.018;2022-08-19T12:15:00;5.13;;;1.73;;
42186;SDS011;27858;51.414;0.018;2022-08-19T12:17:28;5.18;;;1.50;;
42186;SDS011;27858;51.414;0.018;2022-08-19T12:19:57;4.65;;;1.42;;
42186;SDS011;27858;51.414;0.018;2022-08-19T12:22:23;4.00;;;1.30;;
42186;SDS011;27858;51.414;0.018;2022-08-19T12:24:50;9.93;;;1.42;;
42186;SDS011;27858;51.414;0.018;2022-08-19T12:27:19;3.15;;;1.25;;
42186;SDS011;27858;51.414;0.018;2022-08-19T12:30:07;4.55;;;1.40;;
42186;SDS011;27858;51.414;0.018;2022-08-19T12:32:36;4.95;;;1.45;;
42186;SDS011;27858;51.414;0.018;2022-08-19T12:35:04;5.43;;;1.58;;
42186;SDS011;27858;51.414;0.018;2022-08-19T12:37:31;3.10;;;1.83;;
42186;SDS011;27858;51.414;0.018;2022-08-19T12:39:58;5.20;;;1.63;;
42186;SDS011;27858;51.414;0.018;2022-08-19T12:42:25;5.40;;;1.83;;
42186;SDS011;27858;51.414;0.018;2022-08-19T12:44:53;4.55;;;1.50;;
42186;SDS011;27858;51.414;0.018;2022-08-19T12:47:20;3.30;;;1.58;;
42186;SDS011;27858;51.414;0.018;2022-08-19T12:49:47;5.32;;;1.33;;
42186;SDS011;27858;51.414;0.018;2022-08-19T12:52:21;4.00;;;1.55;;
42186;SDS011;27858;51.414;0.018;2022-08-19T12:54:53;4.63;;;1.55;;
42186;SDS011;27858;51.414;0.018;2022-08-19T12:57:22;3.58;;;1.50;;
42186;SDS011;27858;51.414;0.018;2022-08-19T12:59:59;6.45;;;1.83;;
42186;SDS011;27858;51.414;0.018;2022-08-19T13:02:31;5.82;;;1.42;;
42186;SDS011;27858;51.414;0.018;2022-08-19T13:05:04;4.60;;;2.05;;
42186;SDS011;27858;51.414;0.018;2022-08-19T13:07:34;7.85;;;1.90;;
42186;SDS011;27858;51.414;0.018;2022-08-19T13:10:02;9.10;;;1.58;;
42186;SDS011;27858;51.414;0.018;2022-08-19T13:12:29;4.88;;;1.50;;
42186;SDS011;27858;51.414;0.018;2022-08-19T13:14:56;6.05;;;1.90;;
42186;SDS011;27858;51.414;0.018;2022-08-19T13:17:23;3.40;;;0.93;;
42186;SDS011;27858;51.414;0.018;2022-08-19T13:19:50;3.53;;;1.55;;
42186;SDS011;27858;51.414;0.018;2022-08-19T13:22:17;5.95;;;1.52;;
42186;SDS011;27858;51.414;0.018;2022-08-19T13:24:44;5.03;;;1.45;;
42186;SDS011;27858;51.414;0.018;2022-08-19T13:27:12;5.93;;;1.65;;
42186;SDS011;27858;51.414;0.018;2022-08-19T13:29:42;5.93;;;1.98;;
42186;SDS011;27858;51.414;0.018;2022-08-19T13:32:28;7.50;;;2.30;;
42186;SDS011;27858;51.414;0.018;2022-08-19T13:35:15;6.72;;;1.83;;
42186;SDS011;27858;51.414;0.018;2022-08-19T13:37:43;5.68;;;1.88;;
42186;SDS011;27858;51.414;0.018;2022-08-19T13:40:15;5.82;;;2.08;;
42186;SDS011;27858;51.414;0.018;2022-08-19T13:42:46;4.68;;;1.50;;
42186;SDS011;27858;51.414;0.018;2022-08-19T13:45:15;7.35;;;2.13;;
42186;SDS011;27858;51.414;0.018;2022-08-19T13:47:45;4.70;;;1.27;;
42186;SDS011;27858;51.414;0.018;2022-08-19T13:50:14;2.90;;;1.60;;
42186;SDS011;27858;51.414;0.018;2022-08-19T13:52:44;3.25;;;1.35;;
42186;SDS011;27858;51.414;0.018;2022-08-19T13:55:11;15.27;;;2.10;;
42186;SDS011;27858;51.414;0.018;2022-08-19T13:57:38;4.90;;;1.55;;
42186;SDS011;27858;51.414;0.018;2022-08-19T14:00:10;3.25;;;1.48;;
42186;SDS011;27858;51.414;0.018;2022-08-19T14:02:41;3.80;;;1.65;;
42186;SDS011;27858;51.414;0.018;2022-08-19T14:05:10;5.47;;;1.73;;
42186;SDS011;27858;51.414;0.018;2022-08-19T14:07:38;7.57;;;1.70;;
42186;SDS011;27858;51.414;0.018;2022-08-19T14:10:06;4.18;;;1.40;;
42186;SDS011;27858;51.414;0.018;2022-08-19T14:12:34;6.35;;;1.50;;
42186;SDS011;27858;51.414;0.018;2022-08-19T14:15:03;3.72;;;2.20;;
42186;SDS011;27858;51.414;0.018;2022-08-19T14:17:31;6.32;;;1.55;;
42186;SDS011;27858;51.414;0.018;2022-08-19T14:20:02;8.25;;;1.77;;
42186;SDS011;27858;51.414;0.018;2022-08-19T14:22:37;4.68;;;1.63;;
42186;SDS011;27858;51.414;0.018;2022-08-19T14:25:06;4.35;;;1.67;;
42186;SDS011;27858;51.414;0.018;2022-08-19T14:27:36;4.47;;;1.60;;
42186;SDS011;27858;51.414;0.018;2022-08-19T14:30:06;7.45;;;1.60;;
42186;SDS011;27858;51.414;0.018;2022-08-19T14:32:36;2.55;;;1.67;;
42186;SDS011;27858;51.414;0.018;2022-08-19T14:35:03;3.83;;;1.40;;
42186;SDS011;27858;51.414;0.018;2022-08-19T14:37:31;3.22;;;1.50;;
42186;SDS011;27858;51.414;0.018;2022-08-19T14:40:10;4.50;;;1.52;;
42186;SDS011;27858;51.414;0.018;2022-08-19T14:42:39;4.50;;;1.67;;
42186;SDS011;27858;51.414;0.018;2022-08-19T14:45:07;9.77;;;1.85;;
42186;SDS011;27858;51.414;0.018;2022-08-19T14:47:35;2.72;;;1.48;;
42186;SDS011;27858;51.414;0.018;2022-08-19T14:50:12;4.72;;;1.80;;
42186;SDS011;27858;51.414;0.018;2022-08-19T14:52:44;6.97;;;1.80;;
42186;SDS011;27858;51.414;0.018;2022-08-19T14:55:14;3.00;;;1.30;;
42186;SDS011;27858;51.414;0.018;2022-08-19T14:57:43;8.48;;;1.77;;
42186;SDS011;27858;51.414;0.018;2022-08-19T15:00:11;13.30;;;1.98;;
42186;SDS011;27858;51.414;0.018;2022-08-19T15:02:39;6.90;;;2.30;;
42186;SDS011;27858;51.414;0.018;2022-08-19T15:05:07;8.30;;;1.90;;
42186;SDS011;27858;51.414;0.018;2022-08-19T15:07:35;4.50;;;1.20;;
42186;SDS011;27858;51.414;0.018;2022-08-19T15:10:02;4.13;;;1.88;;
42186;SDS011;27858;51.414;0.018;2022-08-19T15:12:36;4.28;;;1.70;;
42186;SDS011;27858;51.414;0.018;2022-08-19T15:15:16;4.53;;;1.67;;
42186;SDS011;27858;51.414;0.018;2022-08-19T15:17:51;3.55;;;1.27;;